sensor_id;sensor_type;location;lat;lon;timestamp;temperature;humidity
12125;DHT22;6126;57.908;16.490;2022-08-21T00:02:25;18.10;76.00
12125;DHT22;6126;57.908;16.490;2022-08-21T00:04:53;18.10;76.00
12125;DHT22;6126;57.908;16.490;2022-08-21T00:07:20;18.10;76.20
12125;DHT22;6126;57.908;16.490;2022-08-21T00:09:47;18.10;75.80
12125;DHT22;6126;57.908;16.490;2022-08-21T00:12:13;18.00;75.70
12125;DHT22;6126;57.908;16.490;2022-08-21T00:14:39;18.10;75.70
12125;DHT22;6126;57.908;16.490;2022-08-21T00:17:05;18.00;75.60
12125;DHT22;6126;57.908;16.490;2022-08-21T00:19:32;18.00;75.70
12125;DHT22;6126;57.908;16.490;2022-08-21T00:21:59;18.00;75.70
12125;DHT22;6126;57.908;16.490;2022-08-21T00:24:25;18.00;76.70
12125;DHT22;6126;57.908;16.490;2022-08-21T00:26:52;18.10;76.00
12125;DHT22;6126;57.908;16.490;2022-08-21T00:29:18;17.50;75.50
12125;DHT22;6126;57.908;16.490;2022-08-21T00:31:44;17.80;75.80
12125;DHT22;6126;57.908;16.490;2022-08-21T00:34:11;17.90;76.00
12125;DHT22;6126;57.908;16.490;2022-08-21T00:36:39;17.80;76.00
12125;DHT22;6126;57.908;16.490;2022-08-21T00:39:07;17.80;76.00
12125;DHT22;6126;57.908;16.490;2022-08-21T00:41:35;17.70;76.00
12125;DHT22;6126;57.908;16.490;2022-08-21T00:44:03;17.70;76.00
12125;DHT22;6126;57.908;16.490;2022-08-21T00:46:34;17.70;76.10
12125;DHT22;6126;57.908;16.490;2022-08-21T00:49:01;17.50;75.90
12125;DHT22;6126;57.908;16.490;2022-08-21T00:51:38;17.70;76.20
12125;DHT22;6126;57.908;16.490;2022-08-21T00:54:07;17.60;76.10
12125;DHT22;6126;57.908;16.490;2022-08-21T00:56:35;17.70;76.10
12125;DHT22;6126;57.908;16.490;2022-08-21T00:59:02;17.30;75.70
12125;DHT22;6126;57.908;16.490;2022-08-21T01:01:29;17.60;76.00
12125;DHT22;6126;57.908;16.490;2022-08-21T01:03:55;17.70;76.20
12125;DHT22;6126;57.908;16.490;2022-08-21T01:06:21;17.70;76.30
12125;DHT22;6126;57.908;16.490;2022-08-21T01:08:47;17.50;76.20
12125;DHT22;6126;57.908;16.490;2022-08-21T01:11:15;17.40;76.10
12125;DHT22;6126;57.908;16.490;2022-08-21T01:13:43;17.40;76.20
12125;DHT22;6126;57.908;16.490;2022-08-21T01:16:14;17.50;76.30
12125;DHT22;6126;57.908;16.490;2022-08-21T01:18:44;17.50;76.40
12125;DHT22;6126;57.908;16.490;2022-08-21T01:21:19;17.70;76.50
12125;DHT22;6126;57.908;16.490;2022-08-21T01:23:52;17.40;76.50
12125;DHT22;6126;57.908;16.490;2022-08-21T01:26:25;17.40;76.30
12125;DHT22;6126;57.908;16.490;2022-08-21T01:29:00;17.40;76.40
12125;DHT22;6126;57.908;16.490;2022-08-21T01:31:47;17.30;76.40
12125;DHT22;6126;57.908;16.490;2022-08-21T01:34:13;17.20;76.50
12125;DHT22;6126;57.908;16.490;2022-08-21T01:36:42;17.10;76.50
12125;DHT22;6126;57.908;16.490;2022-08-21T01:39:09;17.00;76.40
12125;DHT22;6126;57.908;16.490;2022-08-21T01:41:35;17.30;76.80
12125;DHT22;6126;57.908;16.490;2022-08-21T01:44:01;17.20;76.50
12125;DHT22;6126;57.908;16.490;2022-08-21T01:46:27;17.30;76.70
12125;DHT22;6126;57.908;16.490;2022-08-21T01:48:54;17.20;76.80
12125;DHT22;6126;57.908;16.490;2022-08-21T01:51:20;17.30;77.20
12125;DHT22;6126;57.908;16.490;2022-08-21T01:53:46;16.90;76.90
12125;DHT22;6126;57.908;16.490;2022-08-21T01:56:14;16.70;76.80
12125;DHT22;6126;57.908;16.490;2022-08-21T01:58:43;16.70;77.00
12125;DHT22;6126;57.908;16.490;2022-08-21T02:01:12;16.80;77.30
12125;DHT22;6126;57.908;16.490;2022-08-21T02:03:38;16.70;77.50
12125;DHT22;6126;57.908;16.490;2022-08-21T02:06:05;16.80;77.80
12125;DHT22;6126;57.908;16.490;2022-08-21T02:08:32;16.60;77.80
12125;DHT22;6126;57.908;16.490;2022-08-21T02:10:59;16.50;77.80
12125;DHT22;6126;57.908;16.490;2022-08-21T02:13:25;16.30;77.80
12125;DHT22;6126;57.908;16.490;2022-08-21T02:15:51;16.30;78.00
12125;DHT22;6126;57.908;16.490;2022-08-21T02:18:17;16.40;78.30
12125;DHT22;6126;57.908;16.490;2022-08-21T02:20:47;16.20;78.30
12125;DHT22;6126;57.908;16.490;2022-08-21T02:23:14;16.20;78.50
12125;DHT22;6126;57.908;16.490;2022-08-21T02:25:41;16.30;78.60
12125;DHT22;6126;57.908;16.490;2022-08-21T02:28:11;16.30;78.60
12125;DHT22;6126;57.908;16.490;2022-08-21T02:30:46;16.10;78.50
12125;DHT22;6126;57.908;16.490;2022-08-21T02:33:13;16.00;78.40
12125;DHT22;6126;57.908;16.490;2022-08-21T02:35:41;16.10;78.50
12125;DHT22;6126;57.908;16.490;2022-08-21T02:38:14;15.90;78.30
12125;DHT22;6126;57.908;16.490;2022-08-21T02:40:44;16.10;78.50
12125;DHT22;6126;57.908;16.490;2022-08-21T02:43:12;15.90;78.30
12125;DHT22;6126;57.908;16.490;2022-08-21T02:45:38;16.20;78.70
12125;DHT22;6126;57.908;16.490;2022-08-21T02:48:10;16.00;78.60
12125;DHT22;6126;57.908;16.490;2022-08-21T02:50:45;16.10;78.70
12125;DHT22;6126;57.908;16.490;2022-08-21T02:53:14;15.80;78.60
12125;DHT22;6126;57.908;16.490;2022-08-21T02:55:43;16.10;78.90
12125;DHT22;6126;57.908;16.490;2022-08-21T02:58:12;16.20;79.10
12125;DHT22;6126;57.908;16.490;2022-08-21T03:00:39;16.10;79.10
12125;DHT22;6126;57.908;16.490;2022-08-21T03:03:05;16.00;79.10
12125;DHT22;6126;57.908;16.490;2022-08-21T03:05:34;15.80;79.00
12125;DHT22;6126;57.908;16.490;2022-08-21T03:08:04;15.90;79.20
12125;DHT22;6126;57.908;16.490;2022-08-21T03:10:36;16.10;79.60
12125;DHT22;6126;57.908;16.490;2022-08-21T03:13:03;15.90;79.50
12125;DHT22;6126;57.908;16.490;2022-08-21T03:15:29;15.80;79.40
12125;DHT22;6126;57.908;16.490;2022-08-21T03:17:55;16.00;79.60
12125;DHT22;6126;57.908;16.490;2022-08-21T03:20:24;15.80;79.40
12125;DHT22;6126;57.908;16.490;2022-08-21T03:22:52;15.80;79.40
12125;DHT22;6126;57.908;16.490;2022-08-21T03:25:21;16.10;79.80
12125;DHT22;6126;57.908;16.490;2022-08-21T03:27:48;15.90;79.60
12125;DHT22;6126;57.908;16.490;2022-08-21T03:30:15;16.10;79.80
12125;DHT22;6126;57.908;16.490;2022-08-21T03:32:42;15.90;79.50
12125;DHT22;6126;57.908;16.490;2022-08-21T03:35:09;16.10;79.60
12125;DHT22;6126;57.908;16.490;2022-08-21T03:37:35;16.20;79.60
12125;DHT22;6126;57.908;16.490;2022-08-21T03:40:03;16.10;79.40
12125;DHT22;6126;57.908;16.490;2022-08-21T03:42:30;16.10;79.30
12125;DHT22;6126;57.908;16.490;2022-08-21T03:44:56;16.30;79.40
12125;DHT22;6126;57.908;16.490;2022-08-21T03:47:22;16.20;79.20
12125;DHT22;6126;57.908;16.490;2022-08-21T03:49:48;16.60;79.50
12125;DHT22;6126;57.908;16.490;2022-08-21T03:52:14;16.10;78.90
12125;DHT22;6126;57.908;16.490;2022-08-21T03:54:41;16.50;79.20
12125;DHT22;6126;57.908;16.490;2022-08-21T03:57:08;16.40;79.10
12125;DHT22;6126;57.908;16.490;2022-08-21T03:59:35;16.40;79.10
12125;DHT22;6126;57.908;16.490;2022-08-21T04:02:04;16.50;79.10
12125;DHT22;6126;57.908;16.490;2022-08-21T04:04:33;16.80;79.40
12125;DHT22;6126;57.908;16.490;2022-08-21T04:07:00;16.60;79.10
12125;DHT22;6126;57.908;16.490;2022-08-21T04:09:26;16.80;79.30
12125;DHT22;6126;57.908;16.490;2022-08-21T04:11:53;16.60;79.00
12125;DHT22;6126;57.908;16.490;2022-08-21T04:14:20;16.90;79.40
12125;DHT22;6126;57.908;16.490;2022-08-21T04:16:46;16.80;80.10
12125;DHT22;6126;57.908;16.490;2022-08-21T04:19:12;17.00;79.50
12125;DHT22;6126;57.908;16.490;2022-08-21T04:21:39;16.80;79.30
12125;DHT22;6126;57.908;16.490;2022-08-21T04:24:07;16.80;79.30
12125;DHT22;6126;57.908;16.490;2022-08-21T04:26:35;16.70;79.10
12125;DHT22;6126;57.908;16.490;2022-08-21T04:29:03;16.90;79.30
12125;DHT22;6126;57.908;16.490;2022-08-21T04:31:35;16.90;79.30
12125;DHT22;6126;57.908;16.490;2022-08-21T04:34:03;16.90;79.30
12125;DHT22;6126;57.908;16.490;2022-08-21T04:36:30;17.20;79.60
12125;DHT22;6126;57.908;16.490;2022-08-21T04:38:57;17.10;79.50
12125;DHT22;6126;57.908;16.490;2022-08-21T04:41:23;16.90;79.40
12125;DHT22;6126;57.908;16.490;2022-08-21T04:43:48;16.90;79.40
12125;DHT22;6126;57.908;16.490;2022-08-21T04:46:15;16.90;79.30
12125;DHT22;6126;57.908;16.490;2022-08-21T04:48:41;16.80;79.30
12125;DHT22;6126;57.908;16.490;2022-08-21T04:51:09;17.10;79.60
12125;DHT22;6126;57.908;16.490;2022-08-21T04:54:12;17.00;79.50
12125;DHT22;6126;57.908;16.490;2022-08-21T04:56:43;17.00;79.50
12125;DHT22;6126;57.908;16.490;2022-08-21T04:59:43;17.20;79.70
12125;DHT22;6126;57.908;16.490;2022-08-21T05:02:12;17.10;79.60
12125;DHT22;6126;57.908;16.490;2022-08-21T05:04:45;17.00;79.70
12125;DHT22;6126;57.908;16.490;2022-08-21T05:07:24;17.10;79.80
12125;DHT22;6126;57.908;16.490;2022-08-21T05:09:54;16.90;79.70
12125;DHT22;6126;57.908;16.490;2022-08-21T05:12:20;17.20;80.10
12125;DHT22;6126;57.908;16.490;2022-08-21T05:14:47;17.20;80.10
12125;DHT22;6126;57.908;16.490;2022-08-21T05:17:13;17.00;79.90
12125;DHT22;6126;57.908;16.490;2022-08-21T05:19:39;16.90;79.90
12125;DHT22;6126;57.908;16.490;2022-08-21T05:22:05;17.00;80.00
12125;DHT22;6126;57.908;16.490;2022-08-21T05:24:32;17.20;80.20
12125;DHT22;6126;57.908;16.490;2022-08-21T05:26:59;17.10;80.00
12125;DHT22;6126;57.908;16.490;2022-08-21T05:29:25;17.10;79.80
12125;DHT22;6126;57.908;16.490;2022-08-21T05:31:51;17.50;80.30
12125;DHT22;6126;57.908;16.490;2022-08-21T05:34:20;17.40;80.00
12125;DHT22;6126;57.908;16.490;2022-08-21T05:36:47;17.20;79.90
12125;DHT22;6126;57.908;16.490;2022-08-21T05:39:14;17.40;80.10
12125;DHT22;6126;57.908;16.490;2022-08-21T05:41:40;17.40;80.00
12125;DHT22;6126;57.908;16.490;2022-08-21T05:44:06;17.50;80.20
12125;DHT22;6126;57.908;16.490;2022-08-21T05:46:31;17.40;80.00
12125;DHT22;6126;57.908;16.490;2022-08-21T05:48:57;17.60;80.90
12125;DHT22;6126;57.908;16.490;2022-08-21T05:51:23;17.30;79.90
12125;DHT22;6126;57.908;16.490;2022-08-21T05:53:49;17.70;80.20
12125;DHT22;6126;57.908;16.490;2022-08-21T05:56:16;17.40;79.80
12125;DHT22;6126;57.908;16.490;2022-08-21T05:58:42;17.70;80.10
12125;DHT22;6126;57.908;16.490;2022-08-21T06:01:08;17.40;79.80
12125;DHT22;6126;57.908;16.490;2022-08-21T06:03:37;17.80;80.20
12125;DHT22;6126;57.908;16.490;2022-08-21T06:06:05;17.70;80.10
12125;DHT22;6126;57.908;16.490;2022-08-21T06:08:31;17.40;79.80
12125;DHT22;6126;57.908;16.490;2022-08-21T06:10:58;17.50;80.00
12125;DHT22;6126;57.908;16.490;2022-08-21T06:13:26;17.50;80.80
12125;DHT22;6126;57.908;16.490;2022-08-21T06:16:08;17.50;80.10
12125;DHT22;6126;57.908;16.490;2022-08-21T06:18:37;17.80;80.40
12125;DHT22;6126;57.908;16.490;2022-08-21T06:21:04;17.70;80.30
12125;DHT22;6126;57.908;16.490;2022-08-21T06:23:31;17.50;80.10
12125;DHT22;6126;57.908;16.490;2022-08-21T06:25:58;17.60;80.30
12125;DHT22;6126;57.908;16.490;2022-08-21T06:28:24;17.70;80.40
12125;DHT22;6126;57.908;16.490;2022-08-21T06:30:50;17.80;80.50
12125;DHT22;6126;57.908;16.490;2022-08-21T06:33:16;17.80;80.50
12125;DHT22;6126;57.908;16.490;2022-08-21T06:35:42;17.70;80.40
12125;DHT22;6126;57.908;16.490;2022-08-21T06:38:08;18.00;80.70
12125;DHT22;6126;57.908;16.490;2022-08-21T06:40:34;18.00;80.70
12125;DHT22;6126;57.908;16.490;2022-08-21T06:43:11;17.80;80.40
12125;DHT22;6126;57.908;16.490;2022-08-21T06:45:40;17.80;80.30
12125;DHT22;6126;57.908;16.490;2022-08-21T06:48:06;18.00;80.50
12125;DHT22;6126;57.908;16.490;2022-08-21T06:50:36;17.70;80.10
12125;DHT22;6126;57.908;16.490;2022-08-21T06:53:10;17.70;80.10
12125;DHT22;6126;57.908;16.490;2022-08-21T06:55:39;18.00;80.40
12125;DHT22;6126;57.908;16.490;2022-08-21T06:58:06;18.00;80.30
12125;DHT22;6126;57.908;16.490;2022-08-21T07:00:33;18.00;80.20
12125;DHT22;6126;57.908;16.490;2022-08-21T07:03:00;18.20;80.30
12125;DHT22;6126;57.908;16.490;2022-08-21T07:05:27;18.10;80.20
12125;DHT22;6126;57.908;16.490;2022-08-21T07:07:55;18.20;80.10
12125;DHT22;6126;57.908;16.490;2022-08-21T07:10:23;18.30;80.20
12125;DHT22;6126;57.908;16.490;2022-08-21T07:12:50;18.20;80.70
12125;DHT22;6126;57.908;16.490;2022-08-21T07:15:18;18.40;80.00
12125;DHT22;6126;57.908;16.490;2022-08-21T07:17:44;18.00;79.40
12125;DHT22;6126;57.908;16.490;2022-08-21T07:20:09;18.40;79.80
12125;DHT22;6126;57.908;16.490;2022-08-21T07:22:36;18.40;79.80
12125;DHT22;6126;57.908;16.490;2022-08-21T07:25:04;18.50;79.90
12125;DHT22;6126;57.908;16.490;2022-08-21T07:27:31;18.60;79.70
12125;DHT22;6126;57.908;16.490;2022-08-21T07:29:58;18.70;79.60
12125;DHT22;6126;57.908;16.490;2022-08-21T07:32:24;18.80;79.50
12125;DHT22;6126;57.908;16.490;2022-08-21T07:34:50;19.00;79.50
12125;DHT22;6126;57.908;16.490;2022-08-21T07:37:16;19.10;79.30
12125;DHT22;6126;57.908;16.490;2022-08-21T07:39:42;19.20;79.00
12125;DHT22;6126;57.908;16.490;2022-08-21T07:42:08;19.30;78.80
12125;DHT22;6126;57.908;16.490;2022-08-21T07:44:35;19.40;78.60
12125;DHT22;6126;57.908;16.490;2022-08-21T07:47:01;19.50;78.50
12125;DHT22;6126;57.908;16.490;2022-08-21T07:49:27;19.60;78.40
12125;DHT22;6126;57.908;16.490;2022-08-21T07:51:54;19.60;78.30
12125;DHT22;6126;57.908;16.490;2022-08-21T07:54:20;19.70;78.20
12125;DHT22;6126;57.908;16.490;2022-08-21T07:56:46;19.70;78.10
12125;DHT22;6126;57.908;16.490;2022-08-21T07:59:12;19.80;78.00
12125;DHT22;6126;57.908;16.490;2022-08-21T08:01:37;19.90;77.90
12125;DHT22;6126;57.908;16.490;2022-08-21T08:04:03;19.90;77.80
12125;DHT22;6126;57.908;16.490;2022-08-21T08:06:30;20.00;77.70
12125;DHT22;6126;57.908;16.490;2022-08-21T08:08:56;20.10;77.60
12125;DHT22;6126;57.908;16.490;2022-08-21T08:11:21;20.10;77.40
12125;DHT22;6126;57.908;16.490;2022-08-21T08:13:50;20.20;77.30
12125;DHT22;6126;57.908;16.490;2022-08-21T08:16:17;20.30;77.30
12125;DHT22;6126;57.908;16.490;2022-08-21T08:18:44;20.30;78.00
12125;DHT22;6126;57.908;16.490;2022-08-21T08:21:11;20.30;77.10
12125;DHT22;6126;57.908;16.490;2022-08-21T08:23:38;20.30;76.90
12125;DHT22;6126;57.908;16.490;2022-08-21T08:26:05;20.40;76.80
12125;DHT22;6126;57.908;16.490;2022-08-21T08:28:32;20.50;76.70
12125;DHT22;6126;57.908;16.490;2022-08-21T08:30:59;20.60;76.60
12125;DHT22;6126;57.908;16.490;2022-08-21T08:33:25;20.70;76.40
12125;DHT22;6126;57.908;16.490;2022-08-21T08:35:53;20.80;76.30
12125;DHT22;6126;57.908;16.490;2022-08-21T08:38:21;20.80;76.00
12125;DHT22;6126;57.908;16.490;2022-08-21T08:43:37;20.90;75.80
12125;DHT22;6126;57.908;16.490;2022-08-21T08:46:14;20.90;75.60
12125;DHT22;6126;57.908;16.490;2022-08-21T08:48:51;20.90;75.40
12125;DHT22;6126;57.908;16.490;2022-08-21T08:54:09;21.00;75.20
12125;DHT22;6126;57.908;16.490;2022-08-21T08:56:40;21.00;75.00
12125;DHT22;6126;57.908;16.490;2022-08-21T08:59:20;21.00;74.90
12125;DHT22;6126;57.908;16.490;2022-08-21T09:01:52;21.00;74.80
12125;DHT22;6126;57.908;16.490;2022-08-21T09:04:23;21.00;74.60
12125;DHT22;6126;57.908;16.490;2022-08-21T09:07:25;21.00;74.40
12125;DHT22;6126;57.908;16.490;2022-08-21T09:10:03;21.00;74.40
12125;DHT22;6126;57.908;16.490;2022-08-21T09:22:42;21.00;74.00
12125;DHT22;6126;57.908;16.490;2022-08-21T09:27:36;21.00;73.60
12125;DHT22;6126;57.908;16.490;2022-08-21T09:30:05;21.10;73.60
12125;DHT22;6126;57.908;16.490;2022-08-21T09:32:34;21.20;73.40
12125;DHT22;6126;57.908;16.490;2022-08-21T09:35:12;21.20;73.20
12125;DHT22;6126;57.908;16.490;2022-08-21T09:37:52;21.30;72.90
12125;DHT22;6126;57.908;16.490;2022-08-21T09:43:19;21.50;72.30
12125;DHT22;6126;57.908;16.490;2022-08-21T09:45:48;21.50;71.90
12125;DHT22;6126;57.908;16.490;2022-08-21T09:48:28;21.60;71.50
12125;DHT22;6126;57.908;16.490;2022-08-21T09:51:10;21.70;71.30
12125;DHT22;6126;57.908;16.490;2022-08-21T09:53:44;21.90;71.10
12125;DHT22;6126;57.908;16.490;2022-08-21T09:56:29;22.00;70.60
12125;DHT22;6126;57.908;16.490;2022-08-21T09:59:31;22.20;70.30
12125;DHT22;6126;57.908;16.490;2022-08-21T10:02:01;22.30;69.80
12125;DHT22;6126;57.908;16.490;2022-08-21T10:04:51;22.40;69.50
12125;DHT22;6126;57.908;16.490;2022-08-21T10:07:21;22.60;69.20
12125;DHT22;6126;57.908;16.490;2022-08-21T10:10:36;22.70;68.80
12125;DHT22;6126;57.908;16.490;2022-08-21T10:19:02;22.80;67.90
12125;DHT22;6126;57.908;16.490;2022-08-21T10:27:56;23.00;67.10
12125;DHT22;6126;57.908;16.490;2022-08-21T10:30:40;23.10;66.70
12125;DHT22;6126;57.908;16.490;2022-08-21T10:37:01;23.40;66.00
12125;DHT22;6126;57.908;16.490;2022-08-21T10:43:55;23.60;65.10
12125;DHT22;6126;57.908;16.490;2022-08-21T10:46:23;23.80;64.60
12125;DHT22;6126;57.908;16.490;2022-08-21T10:50:02;23.90;64.20
12125;DHT22;6126;57.908;16.490;2022-08-21T10:55:19;24.10;63.70
12125;DHT22;6126;57.908;16.490;2022-08-21T10:57:53;24.30;63.50
12125;DHT22;6126;57.908;16.490;2022-08-21T11:03:32;24.50;62.80
12125;DHT22;6126;57.908;16.490;2022-08-21T11:06:20;24.60;62.50
12125;DHT22;6126;57.908;16.490;2022-08-21T11:08:52;24.70;62.20
12125;DHT22;6126;57.908;16.490;2022-08-21T11:11:38;24.80;62.00
12125;DHT22;6126;57.908;16.490;2022-08-21T11:17:16;24.90;61.50
12125;DHT22;6126;57.908;16.490;2022-08-21T11:20:08;24.90;61.10
12125;DHT22;6126;57.908;16.490;2022-08-21T11:22:53;25.00;60.90
12125;DHT22;6126;57.908;16.490;2022-08-21T11:25:39;25.00;60.60
12125;DHT22;6126;57.908;16.490;2022-08-21T11:28:23;25.10;60.40
12125;DHT22;6126;57.908;16.490;2022-08-21T11:39:09;25.30;59.50
12125;DHT22;6126;57.908;16.490;2022-08-21T11:41:46;25.30;59.20
12125;DHT22;6126;57.908;16.490;2022-08-21T11:44:34;25.40;59.00
12125;DHT22;6126;57.908;16.490;2022-08-21T11:50:19;25.30;58.70
12125;DHT22;6126;57.908;16.490;2022-08-21T11:52:59;25.30;58.60
12125;DHT22;6126;57.908;16.490;2022-08-21T11:55:50;25.40;58.50
12125;DHT22;6126;57.908;16.490;2022-08-21T11:58:50;25.50;58.30
12125;DHT22;6126;57.908;16.490;2022-08-21T12:01:27;25.70;58.10
12125;DHT22;6126;57.908;16.490;2022-08-21T12:04:08;25.70;57.80
12125;DHT22;6126;57.908;16.490;2022-08-21T12:06:42;25.80;57.60
12125;DHT22;6126;57.908;16.490;2022-08-21T12:09:32;25.80;57.40
12125;DHT22;6126;57.908;16.490;2022-08-21T12:17:08;25.90;57.00
12125;DHT22;6126;57.908;16.490;2022-08-21T12:19:42;26.00;56.90
12125;DHT22;6126;57.908;16.490;2022-08-21T12:22:12;26.00;56.70
12125;DHT22;6126;57.908;16.490;2022-08-21T12:27:27;26.00;56.50
12125;DHT22;6126;57.908;16.490;2022-08-21T12:29:59;26.10;56.30
12125;DHT22;6126;57.908;16.490;2022-08-21T12:32:41;26.20;56.30
12125;DHT22;6126;57.908;16.490;2022-08-21T12:35:15;26.20;56.10
12125;DHT22;6126;57.908;16.490;2022-08-21T12:38:00;26.30;55.80
12125;DHT22;6126;57.908;16.490;2022-08-21T12:40:46;26.30;55.80
12125;DHT22;6126;57.908;16.490;2022-08-21T12:46:32;26.30;55.50
12125;DHT22;6126;57.908;16.490;2022-08-21T12:49:13;26.20;55.40
12125;DHT22;6126;57.908;16.490;2022-08-21T12:54:25;26.30;55.30
12125;DHT22;6126;57.908;16.490;2022-08-21T12:57:04;26.40;55.10
12125;DHT22;6126;57.908;16.490;2022-08-21T12:59:36;26.50;55.00
12125;DHT22;6126;57.908;16.490;2022-08-21T13:02:07;26.50;54.90
12125;DHT22;6126;57.908;16.490;2022-08-21T13:04:43;26.50;54.90
12125;DHT22;6126;57.908;16.490;2022-08-21T13:07:12;26.50;54.90
12125;DHT22;6126;57.908;16.490;2022-08-21T13:09:49;26.50;54.90
12125;DHT22;6126;57.908;16.490;2022-08-21T13:12:20;26.50;54.90
12125;DHT22;6126;57.908;16.490;2022-08-21T13:14:49;26.40;54.90
12125;DHT22;6126;57.908;16.490;2022-08-21T13:17:19;26.30;55.00
12125;DHT22;6126;57.908;16.490;2022-08-21T13:20:40;26.20;55.00
12125;DHT22;6126;57.908;16.490;2022-08-21T13:22:49;26.20;55.00
12125;DHT22;6126;57.908;16.490;2022-08-21T13:25:17;26.20;54.90
12125;DHT22;6126;57.908;16.490;2022-08-21T13:27:57;26.20;54.90
12125;DHT22;6126;57.908;16.490;2022-08-21T13:30:39;26.30;54.80
12125;DHT22;6126;57.908;16.490;2022-08-21T13:33:09;26.40;54.50
12125;DHT22;6126;57.908;16.490;2022-08-21T13:38:21;26.70;54.30
12125;DHT22;6126;57.908;16.490;2022-08-21T13:40:56;26.80;54.10
12125;DHT22;6126;57.908;16.490;2022-08-21T13:43:35;26.80;53.90
12125;DHT22;6126;57.908;16.490;2022-08-21T13:46:07;26.80;54.00
12125;DHT22;6126;57.908;16.490;2022-08-21T13:48:37;26.80;54.20
12125;DHT22;6126;57.908;16.490;2022-08-21T13:51:04;26.60;54.30
12125;DHT22;6126;57.908;16.490;2022-08-21T13:56:06;26.40;54.80
12125;DHT22;6126;57.908;16.490;2022-08-21T13:58:43;26.40;54.80
12125;DHT22;6126;57.908;16.490;2022-08-21T14:04:07;26.30;54.80
12125;DHT22;6126;57.908;16.490;2022-08-21T14:06:43;26.20;54.90
12125;DHT22;6126;57.908;16.490;2022-08-21T14:09:34;26.10;54.90
12125;DHT22;6126;57.908;16.490;2022-08-21T14:14:53;25.90;55.10
12125;DHT22;6126;57.908;16.490;2022-08-21T14:17:38;25.90;55.30
12125;DHT22;6126;57.908;16.490;2022-08-21T14:20:09;25.70;55.30
12125;DHT22;6126;57.908;16.490;2022-08-21T14:22:47;25.70;55.50
12125;DHT22;6126;57.908;16.490;2022-08-21T14:27:53;25.50;55.70
12125;DHT22;6126;57.908;16.490;2022-08-21T14:33:01;25.30;55.70
12125;DHT22;6126;57.908;16.490;2022-08-21T14:35:29;25.30;55.80
12125;DHT22;6126;57.908;16.490;2022-08-21T14:37:56;25.20;55.80
12125;DHT22;6126;57.908;16.490;2022-08-21T14:40:24;25.20;55.90
12125;DHT22;6126;57.908;16.490;2022-08-21T14:42:51;25.10;55.80
12125;DHT22;6126;57.908;16.490;2022-08-21T14:45:23;25.00;56.00
12125;DHT22;6126;57.908;16.490;2022-08-21T14:47:52;24.90;56.10
12125;DHT22;6126;57.908;16.490;2022-08-21T14:50:18;24.80;56.40
12125;DHT22;6126;57.908;16.490;2022-08-21T14:52:45;24.70;56.70
12125;DHT22;6126;57.908;16.490;2022-08-21T14:55:12;24.60;57.00
12125;DHT22;6126;57.908;16.490;2022-08-21T14:57:41;24.60;57.30
12125;DHT22;6126;57.908;16.490;2022-08-21T15:00:12;24.50;57.50
12125;DHT22;6126;57.908;16.490;2022-08-21T15:02:39;24.40;57.50
12125;DHT22;6126;57.908;16.490;2022-08-21T15:05:05;24.40;57.70
12125;DHT22;6126;57.908;16.490;2022-08-21T15:07:32;24.30;57.90
12125;DHT22;6126;57.908;16.490;2022-08-21T15:09:57;24.30;58.20
12125;DHT22;6126;57.908;16.490;2022-08-21T15:12:24;24.10;58.20
12125;DHT22;6126;57.908;16.490;2022-08-21T15:14:50;24.10;58.50
12125;DHT22;6126;57.908;16.490;2022-08-21T15:17:18;24.10;58.70
12125;DHT22;6126;57.908;16.490;2022-08-21T15:19:44;24.00;58.70
12125;DHT22;6126;57.908;16.490;2022-08-21T15:22:11;24.00;58.80
12125;DHT22;6126;57.908;16.490;2022-08-21T15:24:37;23.90;58.90
12125;DHT22;6126;57.908;16.490;2022-08-21T15:27:04;23.90;59.00
12125;DHT22;6126;57.908;16.490;2022-08-21T15:29:32;23.90;59.10
12125;DHT22;6126;57.908;16.490;2022-08-21T15:32:02;23.90;59.20
12125;DHT22;6126;57.908;16.490;2022-08-21T15:34:41;23.80;59.20
12125;DHT22;6126;57.908;16.490;2022-08-21T15:37:07;23.70;59.40
12125;DHT22;6126;57.908;16.490;2022-08-21T15:39:34;23.70;59.50
12125;DHT22;6126;57.908;16.490;2022-08-21T15:42:01;23.70;59.60
12125;DHT22;6126;57.908;16.490;2022-08-21T15:44:28;23.70;59.80
12125;DHT22;6126;57.908;16.490;2022-08-21T15:46:55;23.60;59.80
12125;DHT22;6126;57.908;16.490;2022-08-21T15:49:22;23.60;60.00
12125;DHT22;6126;57.908;16.490;2022-08-21T15:51:48;23.50;60.00
12125;DHT22;6126;57.908;16.490;2022-08-21T15:54:14;23.50;60.20
12125;DHT22;6126;57.908;16.490;2022-08-21T15:56:43;23.50;60.40
12125;DHT22;6126;57.908;16.490;2022-08-21T15:59:19;23.40;60.40
12125;DHT22;6126;57.908;16.490;2022-08-21T16:01:50;23.40;60.50
12125;DHT22;6126;57.908;16.490;2022-08-21T16:04:26;23.30;60.50
12125;DHT22;6126;57.908;16.490;2022-08-21T16:06:53;23.30;60.70
12125;DHT22;6126;57.908;16.490;2022-08-21T16:09:20;23.30;60.70
12125;DHT22;6126;57.908;16.490;2022-08-21T16:11:47;23.20;60.70
12125;DHT22;6126;57.908;16.490;2022-08-21T16:14:14;23.20;60.90
12125;DHT22;6126;57.908;16.490;2022-08-21T16:16:42;23.20;61.00
12125;DHT22;6126;57.908;16.490;2022-08-21T16:19:11;23.10;61.10
12125;DHT22;6126;57.908;16.490;2022-08-21T16:21:38;23.10;61.30
12125;DHT22;6126;57.908;16.490;2022-08-21T16:24:05;23.10;61.30
12125;DHT22;6126;57.908;16.490;2022-08-21T16:26:31;23.00;61.20
12125;DHT22;6126;57.908;16.490;2022-08-21T16:28:59;23.00;61.30
12125;DHT22;6126;57.908;16.490;2022-08-21T16:31:27;23.00;61.30
12125;DHT22;6126;57.908;16.490;2022-08-21T16:33:55;23.00;61.40
12125;DHT22;6126;57.908;16.490;2022-08-21T16:36:21;23.00;61.50
12125;DHT22;6126;57.908;16.490;2022-08-21T16:38:51;22.90;61.50
12125;DHT22;6126;57.908;16.490;2022-08-21T16:41:20;22.90;61.60
12125;DHT22;6126;57.908;16.490;2022-08-21T16:43:49;22.80;61.60
12125;DHT22;6126;57.908;16.490;2022-08-21T16:46:17;22.80;61.70
12125;DHT22;6126;57.908;16.490;2022-08-21T16:48:44;22.80;61.80
12125;DHT22;6126;57.908;16.490;2022-08-21T16:51:11;22.70;61.80
12125;DHT22;6126;57.908;16.490;2022-08-21T16:53:38;22.70;61.80
12125;DHT22;6126;57.908;16.490;2022-08-21T16:56:04;22.70;61.90
12125;DHT22;6126;57.908;16.490;2022-08-21T16:58:34;22.60;61.80
12125;DHT22;6126;57.908;16.490;2022-08-21T17:01:07;22.60;61.90
12125;DHT22;6126;57.908;16.490;2022-08-21T17:03:39;22.60;62.00
12125;DHT22;6126;57.908;16.490;2022-08-21T17:06:07;22.50;62.00
12125;DHT22;6126;57.908;16.490;2022-08-21T17:08:33;22.50;62.10
12125;DHT22;6126;57.908;16.490;2022-08-21T17:11:00;22.50;62.10
12125;DHT22;6126;57.908;16.490;2022-08-21T17:13:27;22.40;62.10
12125;DHT22;6126;57.908;16.490;2022-08-21T17:15:55;22.30;62.20
12125;DHT22;6126;57.908;16.490;2022-08-21T17:18:22;22.40;62.30
12125;DHT22;6126;57.908;16.490;2022-08-21T17:20:50;22.30;63.20
12125;DHT22;6126;57.908;16.490;2022-08-21T17:23:18;22.30;62.40